sensor_id;sensor_type;location;lat;lon;timestamp;pressure;altitude;pressure_sealevel;temperature;humidity
60646;BME280;46462;32.608;-117.032;2022-12-17T00:01:21;99609.27;;;18.59;32.09
60646;BME280;46462;32.608;-117.032;2022-12-17T00:03:51;99612.39;;;18.46;32.48
60646;BME280;46462;32.608;-117.032;2022-12-17T00:06:22;99612.60;;;18.48;32.37
60646;BME280;46462;32.608;-117.032;2022-12-17T00:08:52;99611.02;;;18.37;32.45
60646;BME280;46462;32.608;-117.032;2022-12-17T00:11:22;99609.51;;;18.30;32.56
60646;BME280;46462;32.608;-117.032;2022-12-17T00:13:52;99610.42;;;18.18;32.62
60646;BME280;46462;32.608;-117.032;2022-12-17T00:16:23;99608.66;;;18.13;32.79
60646;BME280;46462;32.608;-117.032;2022-12-17T00:18:53;99608.01;;;18.03;33.02
60646;BME280;46462;32.608;-117.032;2022-12-17T00:21:23;99609.38;;;17.97;33.11
60646;BME280;46462;32.608;-117.032;2022-12-17T00:23:53;99603.05;;;18.04;33.00
60646;BME280;46462;32.608;-117.032;2022-12-17T00:26:24;99604.53;;;17.82;33.53
60646;BME280;46462;32.608;-117.032;2022-12-17T00:28:54;99606.98;;;17.91;33.35
60646;BME280;46462;32.608;-117.032;2022-12-17T00:31:26;99585.87;;;18.82;32.08
60646;BME280;46462;32.608;-117.032;2022-12-17T00:33:54;99586.41;;;20.71;28.90
60646;BME280;46462;32.608;-117.032;2022-12-17T00:36:25;99581.38;;;21.90;26.89
60646;BME280;46462;32.608;-117.032;2022-12-17T00:38:54;99583.64;;;22.50;25.88
60646;BME280;46462;32.608;-117.032;2022-12-17T00:41:25;99590.33;;;23.06;25.50
60646;BME280;46462;32.608;-117.032;2022-12-17T00:43:55;99593.63;;;23.48;24.91
60646;BME280;46462;32.608;-117.032;2022-12-17T00:46:25;99592.60;;;23.73;24.33
60646;BME280;46462;32.608;-117.032;2022-12-17T00:48:55;99591.40;;;23.88;24.21
60646;BME280;46462;32.608;-117.032;2022-12-17T00:51:26;99590.59;;;23.97;23.67
60646;BME280;46462;32.608;-117.032;2022-12-17T00:53:56;99592.28;;;23.96;23.74
60646;BME280;46462;32.608;-117.032;2022-12-17T00:56:26;99593.29;;;24.01;23.65
60646;BME280;46462;32.608;-117.032;2022-12-17T00:58:56;99596.74;;;24.06;23.65
60646;BME280;46462;32.608;-117.032;2022-12-17T01:01:26;99600.97;;;24.07;23.57
60646;BME280;46462;32.608;-117.032;2022-12-17T01:03:56;99601.04;;;24.04;23.64
60646;BME280;46462;32.608;-117.032;2022-12-17T01:06:27;99600.69;;;24.01;23.81
60646;BME280;46462;32.608;-117.032;2022-12-17T01:08:57;99601.36;;;24.02;24.16
60646;BME280;46462;32.608;-117.032;2022-12-17T01:11:27;99606.74;;;23.94;24.25
60646;BME280;46462;32.608;-117.032;2022-12-17T01:13:57;99610.79;;;23.89;24.58
60646;BME280;46462;32.608;-117.032;2022-12-17T01:16:27;99606.73;;;23.88;24.58
60646;BME280;46462;32.608;-117.032;2022-12-17T01:18:59;99608.58;;;23.84;24.80
60646;BME280;46462;32.608;-117.032;2022-12-17T01:21:28;99612.22;;;23.77;24.92
60646;BME280;46462;32.608;-117.032;2022-12-17T01:23:58;99612.47;;;23.80;24.73
60646;BME280;46462;32.608;-117.032;2022-12-17T01:26:28;99612.33;;;23.82;24.80
60646;BME280;46462;32.608;-117.032;2022-12-17T01:28:59;99616.76;;;23.83;24.73
60646;BME280;46462;32.608;-117.032;2022-12-17T01:31:29;99619.83;;;23.83;25.01
60646;BME280;46462;32.608;-117.032;2022-12-17T01:33:59;99620.18;;;23.79;24.90
60646;BME280;46462;32.608;-117.032;2022-12-17T01:36:29;99621.26;;;23.83;24.86
60646;BME280;46462;32.608;-117.032;2022-12-17T01:39:00;99622.17;;;23.80;25.00
60646;BME280;46462;32.608;-117.032;2022-12-17T01:41:30;99627.12;;;23.81;24.93
60646;BME280;46462;32.608;-117.032;2022-12-17T01:46:34;99632.89;;;23.76;25.21
60646;BME280;46462;32.608;-117.032;2022-12-17T01:49:00;99632.03;;;23.72;25.38
60646;BME280;46462;32.608;-117.032;2022-12-17T01:51:31;99634.75;;;23.73;25.40
60646;BME280;46462;32.608;-117.032;2022-12-17T01:54:01;99640.24;;;23.70;25.36
60646;BME280;46462;32.608;-117.032;2022-12-17T01:56:31;99642.65;;;23.67;25.33
60646;BME280;46462;32.608;-117.032;2022-12-17T01:59:02;99644.69;;;23.64;25.37
60646;BME280;46462;32.608;-117.032;2022-12-17T02:01:31;99646.33;;;23.60;25.57
60646;BME280;46462;32.608;-117.032;2022-12-17T02:04:02;99648.11;;;23.55;25.64
60646;BME280;46462;32.608;-117.032;2022-12-17T02:06:34;99656.35;;;23.59;25.58
60646;BME280;46462;32.608;-117.032;2022-12-17T02:09:07;99659.21;;;23.61;25.64
60646;BME280;46462;32.608;-117.032;2022-12-17T02:11:37;99658.15;;;23.57;25.72
60646;BME280;46462;32.608;-117.032;2022-12-17T02:14:09;99660.68;;;23.59;25.82
60646;BME280;46462;32.608;-117.032;2022-12-17T02:16:35;99661.46;;;23.58;25.88
60646;BME280;46462;32.608;-117.032;2022-12-17T02:19:09;99661.34;;;23.53;25.87
60646;BME280;46462;32.608;-117.032;2022-12-17T02:21:35;99662.80;;;23.54;25.99
60646;BME280;46462;32.608;-117.032;2022-12-17T02:24:10;99665.53;;;23.57;25.96
60646;BME280;46462;32.608;-117.032;2022-12-17T02:26:37;99667.62;;;23.58;25.96
60646;BME280;46462;32.608;-117.032;2022-12-17T02:29:04;99670.74;;;23.52;26.07
60646;BME280;46462;32.608;-117.032;2022-12-17T02:31:38;99674.49;;;23.52;26.12
60646;BME280;46462;32.608;-117.032;2022-12-17T02:34:04;99678.22;;;23.53;26.08
60646;BME280;46462;32.608;-117.032;2022-12-17T02:36:35;99677.56;;;23.56;26.01
60646;BME280;46462;32.608;-117.032;2022-12-17T02:39:05;99675.04;;;23.56;25.85
60646;BME280;46462;32.608;-117.032;2022-12-17T02:41:39;99676.30;;;23.60;25.95
60646;BME280;46462;32.608;-117.032;2022-12-17T02:44:05;99677.59;;;23.54;25.93
60646;BME280;46462;32.608;-117.032;2022-12-17T02:46:35;99680.31;;;23.47;25.99
60646;BME280;46462;32.608;-117.032;2022-12-17T02:49:05;99682.04;;;23.49;26.14
60646;BME280;46462;32.608;-117.032;2022-12-17T02:51:36;99683.92;;;23.48;26.07
60646;BME280;46462;32.608;-117.032;2022-12-17T02:54:06;99683.85;;;23.43;26.19
60646;BME280;46462;32.608;-117.032;2022-12-17T02:56:36;99684.25;;;23.41;26.26
60646;BME280;46462;32.608;-117.032;2022-12-17T02:59:06;99684.17;;;23.46;26.06
60646;BME280;46462;32.608;-117.032;2022-12-17T03:01:36;99685.50;;;23.45;26.23
60646;BME280;46462;32.608;-117.032;2022-12-17T03:04:07;99686.24;;;23.38;26.27
60646;BME280;46462;32.608;-117.032;2022-12-17T03:06:37;99687.87;;;23.38;26.21
60646;BME280;46462;32.608;-117.032;2022-12-17T03:09:07;99689.93;;;23.39;26.20
60646;BME280;46462;32.608;-117.032;2022-12-17T03:11:37;99690.60;;;23.41;26.27
60646;BME280;46462;32.608;-117.032;2022-12-17T03:14:07;99694.11;;;23.41;26.24
60646;BME280;46462;32.608;-117.032;2022-12-17T03:16:38;99690.45;;;23.35;26.38
60646;BME280;46462;32.608;-117.032;2022-12-17T03:19:09;99689.55;;;23.23;26.54
60646;BME280;46462;32.608;-117.032;2022-12-17T03:21:38;99689.06;;;23.28;26.53
60646;BME280;46462;32.608;-117.032;2022-12-17T03:24:09;99688.01;;;23.17;26.44
60646;BME280;46462;32.608;-117.032;2022-12-17T03:26:38;99690.98;;;23.16;26.44
60646;BME280;46462;32.608;-117.032;2022-12-17T03:29:09;99690.34;;;23.19;26.46
60646;BME280;46462;32.608;-117.032;2022-12-17T03:31:39;99694.93;;;23.20;26.45
60646;BME280;46462;32.608;-117.032;2022-12-17T03:34:09;99696.23;;;23.20;26.48
60646;BME280;46462;32.608;-117.032;2022-12-17T03:36:39;99698.97;;;23.15;26.48
60646;BME280;46462;32.608;-117.032;2022-12-17T03:39:10;99703.07;;;23.09;26.49
60646;BME280;46462;32.608;-117.032;2022-12-17T03:41:40;99704.21;;;23.04;26.47
60646;BME280;46462;32.608;-117.032;2022-12-17T03:44:10;99712.24;;;23.10;26.38
60646;BME280;46462;32.608;-117.032;2022-12-17T03:46:40;99714.92;;;23.06;26.61
60646;BME280;46462;32.608;-117.032;2022-12-17T03:49:11;99714.47;;;23.05;26.60
60646;BME280;46462;32.608;-117.032;2022-12-17T03:51:41;99719.38;;;23.04;26.48
60646;BME280;46462;32.608;-117.032;2022-12-17T03:54:11;99724.61;;;23.00;26.51
60646;BME280;46462;32.608;-117.032;2022-12-17T03:56:41;99730.58;;;22.91;26.57
60646;BME280;46462;32.608;-117.032;2022-12-17T03:59:12;99732.87;;;22.93;26.51
60646;BME280;46462;32.608;-117.032;2022-12-17T04:01:42;99730.23;;;22.89;26.52
60646;BME280;46462;32.608;-117.032;2022-12-17T04:04:12;99732.79;;;22.94;26.51
60646;BME280;46462;32.608;-117.032;2022-12-17T04:06:42;99734.86;;;22.97;26.44
60646;BME280;46462;32.608;-117.032;2022-12-17T04:09:13;99732.78;;;22.81;26.62
60646;BME280;46462;32.608;-117.032;2022-12-17T04:11:43;99733.90;;;22.88;26.56
60646;BME280;46462;32.608;-117.032;2022-12-17T04:14:13;99736.77;;;22.86;26.50
60646;BME280;46462;32.608;-117.032;2022-12-17T04:16:43;99737.70;;;22.78;26.77
60646;BME280;46462;32.608;-117.032;2022-12-17T04:19:13;99742.38;;;22.71;26.62
60646;BME280;46462;32.608;-117.032;2022-12-17T04:21:44;99741.32;;;22.71;26.75
60646;BME280;46462;32.608;-117.032;2022-12-17T04:24:14;99743.34;;;22.71;26.66
60646;BME280;46462;32.608;-117.032;2022-12-17T04:26:44;99744.61;;;22.78;26.55
60646;BME280;46462;32.608;-117.032;2022-12-17T04:29:14;99748.83;;;22.59;26.80
60646;BME280;46462;32.608;-117.032;2022-12-17T04:31:44;99749.49;;;22.61;26.86
60646;BME280;46462;32.608;-117.032;2022-12-17T04:34:15;99749.77;;;22.51;26.97
60646;BME280;46462;32.608;-117.032;2022-12-17T04:36:45;99749.76;;;22.56;26.93
60646;BME280;46462;32.608;-117.032;2022-12-17T04:39:15;99751.81;;;22.50;26.72
60646;BME280;46462;32.608;-117.032;2022-12-17T04:41:45;99750.48;;;22.56;26.70
60646;BME280;46462;32.608;-117.032;2022-12-17T04:44:16;99754.26;;;22.47;26.93
60646;BME280;46462;32.608;-117.032;2022-12-17T04:46:46;99756.82;;;22.42;26.81
60646;BME280;46462;32.608;-117.032;2022-12-17T04:49:16;99756.95;;;22.48;26.80
60646;BME280;46462;32.608;-117.032;2022-12-17T04:51:46;99758.14;;;22.36;27.00
60646;BME280;46462;32.608;-117.032;2022-12-17T04:54:17;99758.24;;;22.41;26.92
60646;BME280;46462;32.608;-117.032;2022-12-17T04:56:47;99760.97;;;22.34;26.93
60646;BME280;46462;32.608;-117.032;2022-12-17T04:59:17;99762.86;;;22.31;26.87
60646;BME280;46462;32.608;-117.032;2022-12-17T05:01:47;99765.56;;;22.30;26.98
60646;BME280;46462;32.608;-117.032;2022-12-17T05:04:17;99766.33;;;22.26;26.96
60646;BME280;46462;32.608;-117.032;2022-12-17T05:06:48;99765.54;;;22.22;26.84
60646;BME280;46462;32.608;-117.032;2022-12-17T05:09:19;99767.89;;;22.21;27.07
60646;BME280;46462;32.608;-117.032;2022-12-17T05:11:48;99767.98;;;22.21;26.93
60646;BME280;46462;32.608;-117.032;2022-12-17T05:14:18;99770.44;;;22.12;27.10
60646;BME280;46462;32.608;-117.032;2022-12-17T05:16:48;99768.14;;;22.12;27.04
60646;BME280;46462;32.608;-117.032;2022-12-17T05:19:19;99765.99;;;22.14;27.04
60646;BME280;46462;32.608;-117.032;2022-12-17T05:21:49;99768.07;;;22.07;27.16
60646;BME280;46462;32.608;-117.032;2022-12-17T05:24:19;99770.91;;;22.11;27.20
60646;BME280;46462;32.608;-117.032;2022-12-17T05:26:49;99772.92;;;22.02;27.16
60646;BME280;46462;32.608;-117.032;2022-12-17T05:29:20;99772.40;;;21.88;27.33
60646;BME280;46462;32.608;-117.032;2022-12-17T05:31:50;99772.60;;;21.82;27.48
60646;BME280;46462;32.608;-117.032;2022-12-17T05:34:20;99772.82;;;21.89;27.42
60646;BME280;46462;32.608;-117.032;2022-12-17T05:36:50;99775.60;;;21.86;27.41
60646;BME280;46462;32.608;-117.032;2022-12-17T05:39:21;99781.57;;;21.81;27.27
60646;BME280;46462;32.608;-117.032;2022-12-17T05:41:51;99782.30;;;21.77;27.56
60646;BME280;46462;32.608;-117.032;2022-12-17T05:44:21;99781.93;;;21.72;27.48
60646;BME280;46462;32.608;-117.032;2022-12-17T05:46:51;99781.43;;;21.74;27.46
60646;BME280;46462;32.608;-117.032;2022-12-17T05:49:21;99778.60;;;21.66;27.48
60646;BME280;46462;32.608;-117.032;2022-12-17T05:51:52;99777.14;;;21.58;27.65
60646;BME280;46462;32.608;-117.032;2022-12-17T05:54:22;99777.40;;;21.57;27.55
60646;BME280;46462;32.608;-117.032;2022-12-17T05:56:53;99771.56;;;21.53;27.67
60646;BME280;46462;32.608;-117.032;2022-12-17T05:59:22;99769.67;;;21.58;27.47
60646;BME280;46462;32.608;-117.032;2022-12-17T06:01:52;99766.25;;;21.54;27.52
60646;BME280;46462;32.608;-117.032;2022-12-17T06:04:23;99769.06;;;21.50;27.61
60646;BME280;46462;32.608;-117.032;2022-12-17T06:06:53;99772.63;;;21.57;27.63
60646;BME280;46462;32.608;-117.032;2022-12-17T06:09:23;99770.26;;;21.50;27.47
60646;BME280;46462;32.608;-117.032;2022-12-17T06:11:54;99771.83;;;21.49;27.51
60646;BME280;46462;32.608;-117.032;2022-12-17T06:14:24;99770.33;;;21.52;27.40
60646;BME280;46462;32.608;-117.032;2022-12-17T06:16:54;99766.69;;;21.51;27.56
60646;BME280;46462;32.608;-117.032;2022-12-17T06:19:24;99766.37;;;21.56;27.33
60646;BME280;46462;32.608;-117.032;2022-12-17T06:21:54;99761.55;;;21.57;27.64
60646;BME280;46462;32.608;-117.032;2022-12-17T06:24:25;99759.39;;;21.58;27.35
60646;BME280;46462;32.608;-117.032;2022-12-17T06:26:55;99758.59;;;21.39;27.47
60646;BME280;46462;32.608;-117.032;2022-12-17T06:29:25;99756.78;;;21.40;27.61
60646;BME280;46462;32.608;-117.032;2022-12-17T06:31:55;99753.41;;;21.41;27.49
60646;BME280;46462;32.608;-117.032;2022-12-17T06:34:25;99744.43;;;21.24;27.61
60646;BME280;46462;32.608;-117.032;2022-12-17T06:36:56;99741.69;;;21.29;27.50
60646;BME280;46462;32.608;-117.032;2022-12-17T06:39:26;99739.72;;;21.14;27.85
60646;BME280;46462;32.608;-117.032;2022-12-17T06:41:56;99738.36;;;21.07;27.91
60646;BME280;46462;32.608;-117.032;2022-12-17T06:44:26;99733.87;;;21.08;27.87
60646;BME280;46462;32.608;-117.032;2022-12-17T06:46:57;99734.98;;;21.34;27.28
60646;BME280;46462;32.608;-117.032;2022-12-17T06:49:27;99732.29;;;21.28;27.34
60646;BME280;46462;32.608;-117.032;2022-12-17T06:51:57;99731.97;;;21.10;27.66
60646;BME280;46462;32.608;-117.032;2022-12-17T06:54:28;99729.65;;;21.16;27.49
60646;BME280;46462;32.608;-117.032;2022-12-17T06:56:58;99725.00;;;21.17;27.41
60646;BME280;46462;32.608;-117.032;2022-12-17T06:59:28;99723.17;;;20.98;27.67
60646;BME280;46462;32.608;-117.032;2022-12-17T07:01:58;99718.25;;;20.96;27.81
60646;BME280;46462;32.608;-117.032;2022-12-17T07:04:29;99716.63;;;21.04;27.73
60646;BME280;46462;32.608;-117.032;2022-12-17T07:06:59;99714.42;;;20.96;27.61
60646;BME280;46462;32.608;-117.032;2022-12-17T07:09:29;99711.87;;;20.74;28.04
60646;BME280;46462;32.608;-117.032;2022-12-17T07:11:59;99712.38;;;20.89;27.86
60646;BME280;46462;32.608;-117.032;2022-12-17T07:14:29;99706.76;;;20.86;27.73
60646;BME280;46462;32.608;-117.032;2022-12-17T07:17:00;99702.94;;;20.74;28.11
60646;BME280;46462;32.608;-117.032;2022-12-17T07:19:30;99699.83;;;20.74;27.97
60646;BME280;46462;32.608;-117.032;2022-12-17T07:22:00;99695.03;;;20.89;27.68
60646;BME280;46462;32.608;-117.032;2022-12-17T07:24:30;99692.89;;;20.91;27.71
60646;BME280;46462;32.608;-117.032;2022-12-17T07:27:01;99690.89;;;20.87;27.54
60646;BME280;46462;32.608;-117.032;2022-12-17T07:29:31;99687.19;;;20.81;27.76
60646;BME280;46462;32.608;-117.032;2022-12-17T07:32:01;99686.68;;;20.81;27.76
60646;BME280;46462;32.608;-117.032;2022-12-17T07:34:31;99682.91;;;20.77;27.63
60646;BME280;46462;32.608;-117.032;2022-12-17T07:37:02;99679.37;;;20.55;27.92
60646;BME280;46462;32.608;-117.032;2022-12-17T07:39:32;99676.91;;;20.53;27.84
60646;BME280;46462;32.608;-117.032;2022-12-17T07:42:02;99675.00;;;20.56;28.12
60646;BME280;46462;32.608;-117.032;2022-12-17T07:44:32;99674.18;;;20.65;27.73
60646;BME280;46462;32.608;-117.032;2022-12-17T07:47:03;99677.02;;;20.68;27.76
60646;BME280;46462;32.608;-117.032;2022-12-17T07:49:33;99674.92;;;20.49;27.92
60646;BME280;46462;32.608;-117.032;2022-12-17T07:52:03;99672.55;;;20.53;27.90
60646;BME280;46462;32.608;-117.032;2022-12-17T07:54:33;99667.29;;;20.51;28.01
60646;BME280;46462;32.608;-117.032;2022-12-17T07:57:04;99666.96;;;20.41;28.06
60646;BME280;46462;32.608;-117.032;2022-12-17T07:59:34;99666.19;;;20.45;27.87
60646;BME280;46462;32.608;-117.032;2022-12-17T08:02:04;99661.61;;;20.44;28.11
60646;BME280;46462;32.608;-117.032;2022-12-17T08:04:34;99659.91;;;20.41;28.03
60646;BME280;46462;32.608;-117.032;2022-12-17T08:07:04;99657.35;;;20.31;28.19
60646;BME280;46462;32.608;-117.032;2022-12-17T08:09:35;99651.96;;;20.22;28.14
60646;BME280;46462;32.608;-117.032;2022-12-17T08:12:05;99650.58;;;20.28;28.10
60646;BME280;46462;32.608;-117.032;2022-12-17T08:14:35;99650.05;;;20.31;28.04
60646;BME280;46462;32.608;-117.032;2022-12-17T08:17:05;99649.75;;;20.17;28.36
60646;BME280;46462;32.608;-117.032;2022-12-17T08:19:36;99649.87;;;20.07;28.40
60646;BME280;46462;32.608;-117.032;2022-12-17T08:22:06;99648.96;;;20.03;28.46
60646;BME280;46462;32.608;-117.032;2022-12-17T08:24:36;99649.17;;;19.99;28.43
60646;BME280;46462;32.608;-117.032;2022-12-17T08:27:07;99644.25;;;19.91;28.45
60646;BME280;46462;32.608;-117.032;2022-12-17T08:29:37;99640.91;;;20.17;27.98
60646;BME280;46462;32.608;-117.032;2022-12-17T08:32:07;99637.41;;;20.10;28.16
60646;BME280;46462;32.608;-117.032;2022-12-17T08:34:37;99637.49;;;20.08;27.98
60646;BME280;46462;32.608;-117.032;2022-12-17T08:37:07;99635.01;;;20.16;28.01
60646;BME280;46462;32.608;-117.032;2022-12-17T08:39:38;99634.36;;;20.27;27.72
60646;BME280;46462;32.608;-117.032;2022-12-17T08:42:08;99636.01;;;20.15;27.79
60646;BME280;46462;32.608;-117.032;2022-12-17T08:44:38;99634.29;;;20.17;28.04
60646;BME280;46462;32.608;-117.032;2022-12-17T08:47:08;99638.71;;;20.10;27.98
60646;BME280;46462;32.608;-117.032;2022-12-17T08:49:39;99634.77;;;19.94;28.04
60646;BME280;46462;32.608;-117.032;2022-12-17T08:52:09;99633.95;;;20.06;27.91
60646;BME280;46462;32.608;-117.032;2022-12-17T08:54:39;99628.07;;;20.11;27.90
60646;BME280;46462;32.608;-117.032;2022-12-17T08:57:10;99629.00;;;20.01;28.01
60646;BME280;46462;32.608;-117.032;2022-12-17T08:59:40;99629.66;;;20.06;27.82
60646;BME280;46462;32.608;-117.032;2022-12-17T09:02:10;99629.06;;;20.11;27.69
60646;BME280;46462;32.608;-117.032;2022-12-17T09:04:40;99635.39;;;20.07;27.72
60646;BME280;46462;32.608;-117.032;2022-12-17T09:07:10;99634.68;;;19.92;28.18
60646;BME280;46462;32.608;-117.032;2022-12-17T09:09:41;99636.90;;;20.11;27.73
60646;BME280;46462;32.608;-117.032;2022-12-17T09:12:11;99633.59;;;19.92;28.02
60646;BME280;46462;32.608;-117.032;2022-12-17T09:14:41;99633.26;;;19.69;28.39
60646;BME280;46462;32.608;-117.032;2022-12-17T09:17:11;99633.48;;;19.60;28.32
60646;BME280;46462;32.608;-117.032;2022-12-17T09:19:42;99636.72;;;19.71;28.24
60646;BME280;46462;32.608;-117.032;2022-12-17T09:22:12;99636.28;;;19.72;28.12
60646;BME280;46462;32.608;-117.032;2022-12-17T09:24:42;99638.09;;;19.50;28.55
60646;BME280;46462;32.608;-117.032;2022-12-17T09:27:12;99639.03;;;19.36;28.47
60646;BME280;46462;32.608;-117.032;2022-12-17T09:29:43;99640.43;;;19.57;28.39
60646;BME280;46462;32.608;-117.032;2022-12-17T09:32:13;99641.89;;;19.36;28.49
60646;BME280;46462;32.608;-117.032;2022-12-17T09:34:43;99639.07;;;19.59;28.09
60646;BME280;46462;32.608;-117.032;2022-12-17T09:37:13;99640.23;;;19.51;28.42
60646;BME280;46462;32.608;-117.032;2022-12-17T09:39:44;99634.36;;;19.43;28.59
60646;BME280;46462;32.608;-117.032;2022-12-17T09:42:18;99642.27;;;19.46;28.28
60646;BME280;46462;32.608;-117.032;2022-12-17T09:44:50;99639.98;;;19.25;28.77
60646;BME280;46462;32.608;-117.032;2022-12-17T09:47:23;99636.36;;;19.36;28.41
60646;BME280;46462;32.608;-117.032;2022-12-17T09:49:45;99632.76;;;19.51;28.11
60646;BME280;46462;32.608;-117.032;2022-12-17T09:52:20;99626.84;;;19.60;27.89
60646;BME280;46462;32.608;-117.032;2022-12-17T09:54:48;99620.03;;;19.40;28.39
60646;BME280;46462;32.608;-117.032;2022-12-17T09:57:17;99626.38;;;19.39;28.30
60646;BME280;46462;32.608;-117.032;2022-12-17T09:59:46;99627.44;;;19.41;28.15
60646;BME280;46462;32.608;-117.032;2022-12-17T10:02:22;99633.52;;;19.29;28.41
60646;BME280;46462;32.608;-117.032;2022-12-17T10:04:47;99633.25;;;19.42;28.13
60646;BME280;46462;32.608;-117.032;2022-12-17T10:07:19;99636.50;;;19.40;28.26
60646;BME280;46462;32.608;-117.032;2022-12-17T10:09:50;99636.96;;;19.18;28.51
60646;BME280;46462;32.608;-117.032;2022-12-17T10:12:19;99634.01;;;19.62;28.00
60646;BME280;46462;32.608;-117.032;2022-12-17T10:14:47;99628.54;;;19.26;28.49
60646;BME280;46462;32.608;-117.032;2022-12-17T10:17:19;99631.23;;;19.19;28.62
60646;BME280;46462;32.608;-117.032;2022-12-17T10:19:51;99629.33;;;19.06;28.65
60646;BME280;46462;32.608;-117.032;2022-12-17T10:22:19;99625.51;;;18.93;28.60
60646;BME280;46462;32.608;-117.032;2022-12-17T10:24:48;99623.99;;;19.09;28.58
60646;BME280;46462;32.608;-117.032;2022-12-17T10:27:19;99623.77;;;18.89;28.83
60646;BME280;46462;32.608;-117.032;2022-12-17T10:29:49;99623.92;;;19.15;28.27
60646;BME280;46462;32.608;-117.032;2022-12-17T10:32:22;99619.68;;;18.80;28.83
60646;BME280;46462;32.608;-117.032;2022-12-17T10:34:49;99621.32;;;18.92;28.77
60646;BME280;46462;32.608;-117.032;2022-12-17T10:37:20;99622.06;;;18.88;28.60
60646;BME280;46462;32.608;-117.032;2022-12-17T10:39:55;99621.41;;;19.11;28.23
60646;BME280;46462;32.608;-117.032;2022-12-17T10:42:23;99624.15;;;19.10;28.20
60646;BME280;46462;32.608;-117.032;2022-12-17T10:44:50;99624.16;;;19.15;28.24
60646;BME280;46462;32.608;-117.032;2022-12-17T10:47:22;99621.88;;;19.20;28.07
60646;BME280;46462;32.608;-117.032;2022-12-17T10:49:57;99626.04;;;18.97;28.57
60646;BME280;46462;32.608;-117.032;2022-12-17T10:52:25;99620.04;;;18.94;28.35
60646;BME280;46462;32.608;-117.032;2022-12-17T10:54:58;99623.46;;;18.81;28.79
60646;BME280;46462;32.608;-117.032;2022-12-17T10:57:25;99628.04;;;18.99;28.38
60646;BME280;46462;32.608;-117.032;2022-12-17T10:59:52;99625.89;;;18.86;28.51
60646;BME280;46462;32.608;-117.032;2022-12-17T11:02:25;99623.97;;;18.84;28.64
60646;BME280;46462;32.608;-117.032;2022-12-17T11:04:53;99623.17;;;18.86;28.43
60646;BME280;46462;32.608;-117.032;2022-12-17T11:07:27;99621.18;;;18.89;28.50
60646;BME280;46462;32.608;-117.032;2022-12-17T11:09:55;99620.91;;;18.83;28.37
60646;BME280;46462;32.608;-117.032;2022-12-17T11:12:30;99619.25;;;18.80;28.38
60646;BME280;46462;32.608;-117.032;2022-12-17T11:14:57;99621.87;;;18.79;28.41
60646;BME280;46462;32.608;-117.032;2022-12-17T11:17:24;99617.68;;;18.90;28.16
60646;BME280;46462;32.608;-117.032;2022-12-17T11:19:57;99615.50;;;18.64;28.74
60646;BME280;46462;32.608;-117.032;2022-12-17T11:22:30;99614.16;;;18.68;28.65
60646;BME280;46462;32.608;-117.032;2022-12-17T11:24:59;99619.62;;;18.74;28.39
60646;BME280;46462;32.608;-117.032;2022-12-17T11:27:28;99616.40;;;19.01;27.79
60646;BME280;46462;32.608;-117.032;2022-12-17T11:29:55;99612.77;;;18.61;28.44
60646;BME280;46462;32.608;-117.032;2022-12-17T11:35:03;99603.67;;;18.65;28.38
60646;BME280;46462;32.608;-117.032;2022-12-17T11:37:29;99601.58;;;18.62;28.27
60646;BME280;46462;32.608;-117.032;2022-12-17T11:40:03;99601.53;;;18.60;28.62
60646;BME280;46462;32.608;-117.032;2022-12-17T11:42:29;99599.38;;;18.55;28.33
60646;BME280;46462;32.608;-117.032;2022-12-17T11:45:00;99595.47;;;18.55;28.33
60646;BME280;46462;32.608;-117.032;2022-12-17T11:47:33;99596.74;;;18.63;28.38
60646;BME280;46462;32.608;-117.032;2022-12-17T11:50:04;99592.48;;;18.62;28.30
60646;BME280;46462;32.608;-117.032;2022-12-17T11:52:32;99588.62;;;18.71;28.03
60646;BME280;46462;32.608;-117.032;2022-12-17T11:55:02;99588.20;;;18.66;28.06
60646;BME280;46462;32.608;-117.032;2022-12-17T11:57:35;99587.88;;;18.32;28.57
60646;BME280;46462;32.608;-117.032;2022-12-17T12:00:03;99583.51;;;18.32;28.59
60646;BME280;46462;32.608;-117.032;2022-12-17T12:02:40;99580.40;;;18.31;28.91
60646;BME280;46462;32.608;-117.032;2022-12-17T12:05:12;99581.88;;;18.38;28.68
60646;BME280;46462;32.608;-117.032;2022-12-17T12:07:35;99583.60;;;18.39;28.54
60646;BME280;46462;32.608;-117.032;2022-12-17T12:10:03;99580.53;;;18.29;28.76
60646;BME280;46462;32.608;-117.032;2022-12-17T12:12:39;99579.89;;;18.34;28.56
60646;BME280;46462;32.608;-117.032;2022-12-17T12:15:05;99575.53;;;18.12;28.71
60646;BME280;46462;32.608;-117.032;2022-12-17T12:17:40;99575.04;;;18.35;28.25
60646;BME280;46462;32.608;-117.032;2022-12-17T12:20:04;99572.90;;;18.29;28.43
60646;BME280;46462;32.608;-117.032;2022-12-17T12:22:33;99576.91;;;18.25;28.59
60646;BME280;46462;32.608;-117.032;2022-12-17T12:27:37;99574.64;;;18.25;28.62
60646;BME280;46462;32.608;-117.032;2022-12-17T12:30:08;99574.04;;;18.17;28.66
60646;BME280;46462;32.608;-117.032;2022-12-17T12:32:37;99572.94;;;18.26;28.61
60646;BME280;46462;32.608;-117.032;2022-12-17T12:35:03;99573.49;;;18.28;28.31
60646;BME280;46462;32.608;-117.032;2022-12-17T12:37:33;99575.55;;;18.17;28.55
60646;BME280;46462;32.608;-117.032;2022-12-17T12:40:13;99574.65;;;18.19;28.55
60646;BME280;46462;32.608;-117.032;2022-12-17T12:42:43;99573.25;;;18.25;28.56
60646;BME280;46462;32.608;-117.032;2022-12-17T12:45:21;99572.93;;;18.00;28.83
60646;BME280;46462;32.608;-117.032;2022-12-17T12:47:45;99569.87;;;17.80;29.23
60646;BME280;46462;32.608;-117.032;2022-12-17T12:50:13;99570.20;;;17.82;29.03
60646;BME280;46462;32.608;-117.032;2022-12-17T12:52:38;99567.94;;;17.81;28.97